createdAt,value
2022-10-07T00:01:03.522Z,85.36
2022-10-07T00:03:35.481Z,85.23
2022-10-07T00:06:19.093Z,85.30
2022-10-07T00:08:52.983Z,85.02
2022-10-07T00:11:27.540Z,85.42
2022-10-07T00:13:59.600Z,85.79
2022-10-07T00:16:34.860Z,86.44
2022-10-07T00:19:07.717Z,86.37
2022-10-07T00:21:38.033Z,86.57
2022-10-07T00:24:07.821Z,86.71
2022-10-07T00:26:37.559Z,86.61
2022-10-07T00:29:06.960Z,87.06
2022-10-07T00:31:37.346Z,87.04
2022-10-07T00:34:05.519Z,87.33
2022-10-07T00:36:37.496Z,87.19
2022-10-07T00:39:15.343Z,87.40
2022-10-07T00:41:50.379Z,87.67
2022-10-07T00:44:32.849Z,88.08
2022-10-07T00:47:07.051Z,88.64
2022-10-07T00:49:49.527Z,88.54
2022-10-07T00:52:20.454Z,88.48
2022-10-07T00:54:53.446Z,88.48
2022-10-07T00:57:25.489Z,88.84
2022-10-07T00:59:55.647Z,89.26
2022-10-07T01:02:25.500Z,89.38
2022-10-07T01:04:56.888Z,89.04
2022-10-07T01:07:24.650Z,88.88
2022-10-07T01:09:55.188Z,88.66
2022-10-07T01:12:40.292Z,88.91
2022-10-07T01:15:18.126Z,89.27
2022-10-07T01:18:11.299Z,89.40
2022-10-07T01:20:58.014Z,89.43
2022-10-07T01:23:39.980Z,89.25
2022-10-07T01:26:51.296Z,89.68
2022-10-07T01:29:56.197Z,89.46
2022-10-07T01:33:04.976Z,89.31
2022-10-07T01:35:37.949Z,89.29
2022-10-07T01:38:10.988Z,89.19
2022-10-07T01:40:48.406Z,88.92
2022-10-07T01:43:20.771Z,88.65
2022-10-07T01:45:49.207Z,88.48
2022-10-07T01:48:17.105Z,88.58
2022-10-07T01:50:45.571Z,88.31
2022-10-07T01:53:39.205Z,88.19
2022-10-07T01:56:46.592Z,88.35
2022-10-07T01:59:35.512Z,88.33
2022-10-07T02:02:18.788Z,88.74
2022-10-07T02:05:30.655Z,88.49
2022-10-07T02:08:24.865Z,88.47
2022-10-07T02:11:16.755Z,88.66
2022-10-07T02:13:56.085Z,88.48
2022-10-07T02:16:35.522Z,88.28
2022-10-07T02:19:11.118Z,88.42
2022-10-07T02:21:40.506Z,88.58
2022-10-07T02:24:12.236Z,88.60
2022-10-07T02:26:43.515Z,88.51
2022-10-07T02:29:14.690Z,88.95
2022-10-07T02:31:47.671Z,88.78
2022-10-07T02:34:20.275Z,88.70
2022-10-07T02:37:05.808Z,88.65
2022-10-07T02:39:34.204Z,88.96
2022-10-07T02:42:14.122Z,88.86
2022-10-07T02:45:07.016Z,88.81
2022-10-07T02:47:45.278Z,88.92
2022-10-07T02:50:22.540Z,88.75
2022-10-07T02:52:55.817Z,88.78
2022-10-07T02:55:27.630Z,89.11
2022-10-07T02:58:00.652Z,88.82
2022-10-07T03:00:34.775Z,88.83
2022-10-07T03:03:05.158Z,88.90
2022-10-07T03:05:35.528Z,88.80
2022-10-07T03:08:11.346Z,88.61
2022-10-07T03:10:38.950Z,88.70
2022-10-07T03:13:06.117Z,88.58
2022-10-07T03:15:41.902Z,88.65
2022-10-07T03:18:26.296Z,88.60
2022-10-07T03:20:55.989Z,88.53
2022-10-07T03:23:25.166Z,88.80
2022-10-07T03:25:54.925Z,88.81
2022-10-07T03:28:24.651Z,89.62
2022-10-07T03:30:53.117Z,89.79
2022-10-07T03:33:25.866Z,90.32
2022-10-07T03:35:53.970Z,90.29
2022-10-07T03:38:21.959Z,90.18
2022-10-07T03:40:49.957Z,90.28
2022-10-07T03:43:18.268Z,90.08
2022-10-07T03:45:50.024Z,90.15
2022-10-07T03:48:18.000Z,90.41
2022-10-07T03:50:57.759Z,90.17
2022-10-07T03:53:29.720Z,90.75
2022-10-07T03:55:58.152Z,90.98
2022-10-07T03:58:25.909Z,91.14
2022-10-07T04:01:03.543Z,91.48
2022-10-07T04:03:30.963Z,91.84
2022-10-07T04:05:59.760Z,91.58
2022-10-07T04:08:29.284Z,91.94
2022-10-07T04:10:59.737Z,91.63
2022-10-07T04:13:27.381Z,91.63
2022-10-07T04:15:55.189Z,92.06
2022-10-07T04:18:23.910Z,91.80
2022-10-07T04:20:51.122Z,91.75
2022-10-07T04:23:19.569Z,91.40
2022-10-07T04:25:47.684Z,91.31
2022-10-07T04:28:22.176Z,90.69
2022-10-07T04:30:51.607Z,90.84
2022-10-07T04:33:21.265Z,92.03
2022-10-07T04:35:50.337Z,91.54
2022-10-07T04:38:18.983Z,91.30
2022-10-07T04:40:50.152Z,91.83
2022-10-07T04:43:23.716Z,91.85
2022-10-07T04:45:54.482Z,92.24
2022-10-07T04:48:24.114Z,92.91
2022-10-07T04:50:54.856Z,92.68
2022-10-07T04:53:22.952Z,92.64
2022-10-07T04:55:54.668Z,92.41
2022-10-07T04:58:22.017Z,92.55
2022-10-07T05:00:53.180Z,92.95
2022-10-07T05:03:23.436Z,92.85
2022-10-07T05:05:55.362Z,92.38
2022-10-07T05:08:25.022Z,92.21
2022-10-07T05:11:01.133Z,92.11
2022-10-07T05:13:30.344Z,92.08
2022-10-07T05:16:00.769Z,92.08
2022-10-07T05:18:29.856Z,91.93
2022-10-07T05:20:57.376Z,91.41
2022-10-07T05:23:28.646Z,91.24
2022-10-07T05:26:08.090Z,91.05
2022-10-07T05:28:37.702Z,90.98
2022-10-07T05:31:09.496Z,90.72
2022-10-07T05:33:38.239Z,90.50
2022-10-07T05:36:08.172Z,90.26
2022-10-07T05:38:36.958Z,90.35
2022-10-07T05:41:09.882Z,90.13
2022-10-07T05:43:42.366Z,89.77
2022-10-07T05:46:16.646Z,90.89
2022-10-07T05:48:52.313Z,92.63
2022-10-07T05:51:21.459Z,94.29
2022-10-07T05:53:49.354Z,94.99
2022-10-07T05:56:22.723Z,95.47
2022-10-07T05:58:52.583Z,94.41
2022-10-07T06:01:24.890Z,93.88
2022-10-07T06:03:55.544Z,93.69
2022-10-07T06:06:24.302Z,93.53
2022-10-07T06:08:53.678Z,93.42
2022-10-07T06:11:40.000Z,92.82
2022-10-07T06:14:07.458Z,92.17
2022-10-07T06:16:34.801Z,91.97
2022-10-07T06:19:02.378Z,91.67
2022-10-07T06:21:29.570Z,91.24
2022-10-07T06:23:58.558Z,91.49
2022-10-07T06:26:26.198Z,91.90
2022-10-07T06:28:53.621Z,92.34
2022-10-07T06:31:26.016Z,91.98
2022-10-07T06:33:54.356Z,91.76
2022-10-07T06:36:21.708Z,91.96
2022-10-07T06:38:51.963Z,92.00
2022-10-07T06:41:20.068Z,92.11
2022-10-07T06:43:48.046Z,92.36
2022-10-07T06:46:20.213Z,92.73
2022-10-07T06:48:47.951Z,92.29
2022-10-07T06:51:18.715Z,92.46
2022-10-07T06:53:50.676Z,92.09
2022-10-07T06:56:18.059Z,92.20
2022-10-07T06:58:45.502Z,92.54
2022-10-07T07:01:13.210Z,92.33
2022-10-07T07:03:40.793Z,93.04
2022-10-07T07:06:11.058Z,92.87
2022-10-07T07:08:41.181Z,92.22
2022-10-07T07:11:32.971Z,91.83
2022-10-07T07:14:00.683Z,91.49
2022-10-07T07:16:28.520Z,90.84
2022-10-07T07:19:01.747Z,89.92
2022-10-07T07:21:30.242Z,88.46
2022-10-07T07:23:58.808Z,86.53
2022-10-07T07:26:28.297Z,84.78
2022-10-07T07:29:02.738Z,79.79
2022-10-07T07:31:33.610Z,67.14
2022-10-07T07:34:05.609Z,55.28
2022-10-07T07:36:36.263Z,49.20
2022-10-07T07:39:11.510Z,43.72
2022-10-07T07:41:42.274Z,39.44
2022-10-07T07:44:12.676Z,35.66
2022-10-07T07:46:44.132Z,32.98
2022-10-07T07:49:13.424Z,32.51
2022-10-07T07:51:44.647Z,31.31
2022-10-07T07:54:13.186Z,30.51
2022-10-07T07:56:41.940Z,29.20
2022-10-07T07:59:10.764Z,28.27
2022-10-07T08:01:39.074Z,27.11
2022-10-07T08:04:07.146Z,25.91
2022-10-07T08:06:34.924Z,24.85
2022-10-07T08:09:02.468Z,23.62
2022-10-07T08:11:30.263Z,23.13
2022-10-07T08:13:57.779Z,22.50
2022-10-07T08:16:28.833Z,21.72
2022-10-07T08:18:58.196Z,21.00
2022-10-07T08:21:32.974Z,20.23
2022-10-07T08:24:04.215Z,19.70
2022-10-07T08:26:34.716Z,19.54
2022-10-07T08:29:02.290Z,19.22
2022-10-07T08:31:30.426Z,18.83
2022-10-07T08:34:01.825Z,18.39
2022-10-07T08:36:32.927Z,17.62
2022-10-07T08:39:02.314Z,17.28
2022-10-07T08:41:54.395Z,16.85
2022-10-07T08:44:48.034Z,16.80
2022-10-07T08:47:30.569Z,16.61
2022-10-07T08:50:18.114Z,15.28
2022-10-07T08:53:00.117Z,15.25
2022-10-07T08:55:49.994Z,15.90
2022-10-07T08:58:31.047Z,15.33
2022-10-07T09:01:40.689Z,14.71
2022-10-07T09:04:34.908Z,14.28
2022-10-07T09:07:27.061Z,13.83
2022-10-07T09:10:00.960Z,13.96
2022-10-07T09:12:52.521Z,14.05
2022-10-07T09:15:41.936Z,13.59
2022-10-07T09:18:24.946Z,14.53
2022-10-07T09:20:56.198Z,13.76
2022-10-07T09:23:30.130Z,14.98
2022-10-07T09:25:57.941Z,15.33
2022-10-07T09:28:34.517Z,15.94
2022-10-07T09:31:03.166Z,17.04
2022-10-07T09:33:31.332Z,16.44
2022-10-07T09:36:11.677Z,16.22
2022-10-07T09:38:46.036Z,15.43
2022-10-07T09:41:36.087Z,14.78
2022-10-07T09:44:15.665Z,15.44
2022-10-07T09:46:59.475Z,13.54
2022-10-07T09:49:29.905Z,13.65
2022-10-07T09:52:03.377Z,15.00
2022-10-07T09:54:36.314Z,15.07
2022-10-07T09:57:05.675Z,14.14
2022-10-07T09:59:37.652Z,13.73
2022-10-07T10:02:20.207Z,13.01
2022-10-07T10:04:57.334Z,13.71
2022-10-07T10:07:32.634Z,13.65
2022-10-07T10:10:28.817Z,14.53
2022-10-07T10:12:59.040Z,14.30
2022-10-07T10:15:45.029Z,14.37
2022-10-07T10:18:37.192Z,14.50
2022-10-07T10:21:31.047Z,15.03
2022-10-07T10:24:15.224Z,14.76
2022-10-07T10:27:04.450Z,15.19
2022-10-07T10:29:48.569Z,14.48
2022-10-07T10:32:51.465Z,13.73
2022-10-07T10:35:35.802Z,11.51
2022-10-07T10:38:51.864Z,10.51
2022-10-07T10:41:56.291Z,9.49
2022-10-07T10:44:54.476Z,9.28
2022-10-07T10:48:25.838Z,9.14
2022-10-07T10:50:53.441Z,8.90
2022-10-07T10:53:52.739Z,8.69
2022-10-07T10:57:09.599Z,8.55
2022-10-07T10:59:45.766Z,7.81
2022-10-07T11:03:14.937Z,8.00
2022-10-07T11:05:44.212Z,7.08
2022-10-07T11:08:23.123Z,7.69
2022-10-07T11:10:57.608Z,7.73
2022-10-07T11:13:51.972Z,7.46
2022-10-07T11:16:45.275Z,6.83
2022-10-07T11:19:25.059Z,7.06
2022-10-07T11:22:00.046Z,6.48
2022-10-07T11:24:34.827Z,6.88
2022-10-07T11:27:15.003Z,7.16
2022-10-07T11:30:17.768Z,6.51
2022-10-07T11:32:47.741Z,6.33
2022-10-07T11:35:49.295Z,6.94
2022-10-07T11:38:31.402Z,6.95
2022-10-07T11:41:09.602Z,6.50
2022-10-07T11:43:56.937Z,6.13
2022-10-07T11:46:46.277Z,6.23
2022-10-07T11:49:23.670Z,6.55
2022-10-07T11:52:04.614Z,5.94
2022-10-07T11:55:09.302Z,6.86
2022-10-07T11:57:44.015Z,6.57
2022-10-07T12:00:33.126Z,6.88
2022-10-07T12:03:33.569Z,5.94
2022-10-07T12:06:13.767Z,6.67
2022-10-07T12:08:44.223Z,6.58
2022-10-07T12:11:16.729Z,6.10
2022-10-07T12:13:54.169Z,6.32
2022-10-07T12:16:24.354Z,6.13
2022-10-07T12:19:07.372Z,6.27
2022-10-07T12:21:59.338Z,7.00
2022-10-07T12:24:28.231Z,6.96
2022-10-07T12:27:18.221Z,7.02
2022-10-07T12:30:02.482Z,6.67
2022-10-07T12:32:39.656Z,6.63
2022-10-07T12:35:37.943Z,6.38
2022-10-07T12:38:11.073Z,6.74
2022-10-07T12:40:41.749Z,6.98
2022-10-07T12:43:47.878Z,7.76
2022-10-07T12:46:21.606Z,7.67
2022-10-07T12:49:03.263Z,7.94
2022-10-07T12:51:38.781Z,8.52
2022-10-07T12:54:20.381Z,8.23
2022-10-07T12:56:49.365Z,8.77
2022-10-07T12:59:49.795Z,8.73
2022-10-07T13:03:08.997Z,8.86
2022-10-07T13:06:14.482Z,9.16
2022-10-07T13:09:04.355Z,9.27
2022-10-07T13:11:34.454Z,9.00
2022-10-07T13:14:16.753Z,8.94
2022-10-07T13:17:35.381Z,9.36
2022-10-07T13:20:38.946Z,9.64
2022-10-07T13:23:17.338Z,9.50
2022-10-07T13:25:58.036Z,9.75
2022-10-07T13:28:38.796Z,9.64
2022-10-07T13:31:28.664Z,9.51
2022-10-07T13:33:59.399Z,9.81
2022-10-07T13:36:33.100Z,10.00
2022-10-07T13:39:23.193Z,10.22
2022-10-07T13:41:58.158Z,11.13
2022-10-07T13:44:32.158Z,10.94
2022-10-07T13:47:10.128Z,11.37
2022-10-07T13:49:44.156Z,10.76
2022-10-07T13:52:37.228Z,11.42
2022-10-07T13:55:31.482Z,11.54
2022-10-07T13:58:04.599Z,11.61
2022-10-07T14:00:36.117Z,12.12
2022-10-07T14:03:17.464Z,12.40
2022-10-07T14:05:52.508Z,12.92
2022-10-07T14:08:24.823Z,12.62
2022-10-07T14:10:59.914Z,13.04
2022-10-07T14:13:29.087Z,13.28
2022-10-07T14:15:59.443Z,13.53
2022-10-07T14:18:29.819Z,13.80
2022-10-07T14:21:10.801Z,13.57
2022-10-07T14:23:38.439Z,13.62
2022-10-07T14:26:19.067Z,13.81
2022-10-07T14:28:46.533Z,14.24
2022-10-07T14:31:40.119Z,14.07
2022-10-07T14:34:38.441Z,14.19
2022-10-07T14:37:13.783Z,14.67
2022-10-07T14:39:50.039Z,15.47
2022-10-07T14:42:34.960Z,15.45
2022-10-07T14:45:08.327Z,15.91
2022-10-07T14:47:36.399Z,16.09
2022-10-07T14:50:04.347Z,16.02
2022-10-07T14:52:46.779Z,16.54
2022-10-07T14:55:20.632Z,16.95
2022-10-07T14:57:48.233Z,17.32
2022-10-07T15:00:25.679Z,17.82
2022-10-07T15:02:58.245Z,19.17
2022-10-07T15:05:27.021Z,21.06
2022-10-07T15:07:54.326Z,22.51
2022-10-07T15:10:26.415Z,24.24
2022-10-07T15:12:56.135Z,25.00
2022-10-07T15:15:23.462Z,26.38
2022-10-07T15:17:50.968Z,27.33
2022-10-07T15:20:18.488Z,28.34
2022-10-07T15:22:46.303Z,29.83
2022-10-07T15:25:15.410Z,30.62
2022-10-07T15:27:43.496Z,31.94
2022-10-07T15:30:11.926Z,32.26
2022-10-07T15:32:39.163Z,33.21
2022-10-07T15:35:07.612Z,34.20
2022-10-07T15:37:34.849Z,35.19
2022-10-07T15:40:02.121Z,36.39
2022-10-07T15:42:29.729Z,38.00
2022-10-07T15:44:57.035Z,38.66
2022-10-07T15:47:24.492Z,40.47
2022-10-07T15:49:51.834Z,41.51
2022-10-07T15:52:19.139Z,43.25
2022-10-07T15:54:46.667Z,44.20
2022-10-07T15:57:14.796Z,44.78
2022-10-07T15:59:42.597Z,45.78
2022-10-07T16:02:21.443Z,47.75
2022-10-07T16:04:49.082Z,48.80
2022-10-07T16:07:16.918Z,49.60
2022-10-07T16:09:44.287Z,50.55
2022-10-07T16:12:11.894Z,51.23
2022-10-07T16:14:39.281Z,52.13
2022-10-07T16:17:06.503Z,53.89
2022-10-07T16:19:33.924Z,52.79
2022-10-07T16:22:01.369Z,52.73
2022-10-07T16:24:34.049Z,51.92
2022-10-07T16:27:02.674Z,55.00
2022-10-07T16:29:48.653Z,56.98
2022-10-07T16:32:16.550Z,58.07
2022-10-07T16:34:44.600Z,56.84
2022-10-07T16:37:13.169Z,56.60
2022-10-07T16:39:40.681Z,55.65
2022-10-07T16:42:08.249Z,56.07
2022-10-07T16:44:35.938Z,56.39
2022-10-07T16:47:03.574Z,55.82
2022-10-07T16:49:30.946Z,56.79
2022-10-07T16:51:58.922Z,56.59
2022-10-07T16:54:29.995Z,56.34
2022-10-07T16:56:57.716Z,56.51
2022-10-07T16:59:26.339Z,56.96
2022-10-07T17:01:56.820Z,57.53
2022-10-07T17:04:25.429Z,57.95
2022-10-07T17:06:54.185Z,57.62
2022-10-07T17:09:24.642Z,58.77
2022-10-07T17:11:52.598Z,59.48
2022-10-07T17:14:22.900Z,58.96
2022-10-07T17:16:57.759Z,60.00
2022-10-07T17:19:28.294Z,60.21
2022-10-07T17:21:59.312Z,60.58
2022-10-07T17:24:27.328Z,60.47
2022-10-07T17:26:56.319Z,60.12
2022-10-07T17:29:26.200Z,60.69
2022-10-07T17:31:54.277Z,60.77
2022-10-07T17:34:22.913Z,61.29
2022-10-07T17:36:50.737Z,60.98
2022-10-07T17:39:21.676Z,61.96
2022-10-07T17:41:49.098Z,63.00
2022-10-07T17:44:17.512Z,64.93
2022-10-07T17:46:45.387Z,65.49
2022-10-07T17:49:13.556Z,66.39
2022-10-07T17:51:43.138Z,66.74
2022-10-07T17:54:13.806Z,66.46
2022-10-07T17:56:44.588Z,66.19
2022-10-07T17:59:12.441Z,67.30
2022-10-07T18:01:41.639Z,67.29
2022-10-07T18:04:22.474Z,67.10
2022-10-07T18:06:52.269Z,67.61
2022-10-07T18:09:22.145Z,68.68
2022-10-07T18:12:08.177Z,69.79
2022-10-07T18:14:54.678Z,70.07
2022-10-07T18:17:24.589Z,69.82
2022-10-07T18:19:52.681Z,71.08
2022-10-07T18:22:20.252Z,72.02
2022-10-07T18:24:47.760Z,71.26
2022-10-07T18:27:15.640Z,73.68
2022-10-07T18:29:42.945Z,73.61
2022-10-07T18:32:10.647Z,74.40
2022-10-07T18:34:38.090Z,74.30
2022-10-07T18:37:05.384Z,75.39
2022-10-07T18:39:33.059Z,75.85
2022-10-07T18:42:00.434Z,76.91
2022-10-07T18:44:27.961Z,77.00
2022-10-07T18:46:55.526Z,77.04
2022-10-07T18:49:23.412Z,78.04
2022-10-07T18:51:51.175Z,77.88
2022-10-07T18:54:20.350Z,76.94
2022-10-07T18:56:49.690Z,76.82
2022-10-07T18:59:18.944Z,77.15
2022-10-07T19:01:50.396Z,77.91
2022-10-07T19:04:19.777Z,78.28
2022-10-07T19:06:48.435Z,78.09
2022-10-07T19:09:22.246Z,77.65
2022-10-07T19:11:50.098Z,79.40
2022-10-07T19:14:17.730Z,79.32
2022-10-07T19:16:49.389Z,79.97
2022-10-07T19:19:20.963Z,78.85
2022-10-07T19:21:55.041Z,78.93
2022-10-07T19:24:45.694Z,80.25
2022-10-07T19:27:14.319Z,80.39
2022-10-07T19:29:41.795Z,80.00
2022-10-07T19:32:09.277Z,80.23
2022-10-07T19:34:37.494Z,79.99
2022-10-07T19:37:05.193Z,81.46
2022-10-07T19:39:32.882Z,81.90
2022-10-07T19:42:00.549Z,82.19
2022-10-07T19:44:28.004Z,81.85
2022-10-07T19:46:55.388Z,81.38
2022-10-07T19:49:22.810Z,81.91
2022-10-07T19:51:50.088Z,82.84
2022-10-07T19:54:17.502Z,82.32
2022-10-07T19:56:45.426Z,82.09
2022-10-07T19:59:14.779Z,83.15
2022-10-07T20:01:45.324Z,82.97
2022-10-07T20:04:21.747Z,81.97
2022-10-07T20:06:49.299Z,83.21
2022-10-07T20:09:19.359Z,82.84
2022-10-07T20:11:47.146Z,82.72
2022-10-07T20:14:16.206Z,82.71
2022-10-07T20:16:44.382Z,83.62
2022-10-07T20:19:16.458Z,83.88
2022-10-07T20:21:44.323Z,83.61
2022-10-07T20:24:17.899Z,83.11
2022-10-07T20:26:45.383Z,84.91
2022-10-07T20:29:16.161Z,85.19
2022-10-07T20:31:45.008Z,84.18
2022-10-07T20:34:16.777Z,86.76
2022-10-07T20:36:44.430Z,87.29
2022-10-07T20:39:37.489Z,86.80
2022-10-07T20:42:21.732Z,86.03
2022-10-07T20:44:50.723Z,86.02
2022-10-07T20:47:20.058Z,87.03
2022-10-07T20:49:48.867Z,87.75
2022-10-07T20:52:23.496Z,88.20
2022-10-07T20:54:52.897Z,87.72
2022-10-07T20:57:33.868Z,87.57
2022-10-07T21:00:01.051Z,87.11
2022-10-07T21:02:29.153Z,86.36
2022-10-07T21:04:56.538Z,86.44
2022-10-07T21:07:23.942Z,87.14
2022-10-07T21:09:51.208Z,86.46
2022-10-07T21:12:18.810Z,85.58
2022-10-07T21:14:48.090Z,85.05
2022-10-07T21:17:16.825Z,84.49
2022-10-07T21:19:44.556Z,86.31
2022-10-07T21:22:11.991Z,86.97
2022-10-07T21:24:39.318Z,86.17
2022-10-07T21:27:08.616Z,85.47
2022-10-07T21:29:40.663Z,84.84
2022-10-07T21:32:10.321Z,86.01
2022-10-07T21:34:38.730Z,86.61
2022-10-07T21:37:06.443Z,86.64
2022-10-07T21:39:33.751Z,87.50
2022-10-07T21:42:01.913Z,87.75
2022-10-07T21:44:29.493Z,88.30
2022-10-07T21:46:59.903Z,89.09
2022-10-07T21:49:27.530Z,89.29
2022-10-07T21:51:54.787Z,89.85
2022-10-07T21:54:22.048Z,90.26
2022-10-07T21:56:50.206Z,90.99
2022-10-07T21:59:17.510Z,91.70
2022-10-07T22:01:44.750Z,91.53
2022-10-07T22:04:19.890Z,91.38
2022-10-07T22:07:06.022Z,91.41
2022-10-07T22:09:33.654Z,92.03
2022-10-07T22:12:00.978Z,92.23
2022-10-07T22:14:28.597Z,92.91
2022-10-07T22:16:55.823Z,92.77
2022-10-07T22:19:23.274Z,92.94
2022-10-07T22:21:50.823Z,93.03
2022-10-07T22:24:18.214Z,92.97
2022-10-07T22:26:47.740Z,93.15
2022-10-07T22:29:17.781Z,92.91
2022-10-07T22:31:45.874Z,93.01
2022-10-07T22:34:33.477Z,92.66
2022-10-07T22:37:01.827Z,92.29
2022-10-07T22:39:29.875Z,92.27
2022-10-07T22:42:01.303Z,92.27
2022-10-07T22:44:28.695Z,92.06
2022-10-07T22:46:59.291Z,91.84
2022-10-07T22:49:30.085Z,91.84
2022-10-07T22:52:00.097Z,92.34
2022-10-07T22:54:28.570Z,92.34
2022-10-07T22:56:55.924Z,92.05
2022-10-07T22:59:23.236Z,92.76
2022-10-07T23:01:50.834Z,91.87
2022-10-07T23:04:20.367Z,91.95
2022-10-07T23:06:47.746Z,91.49
2022-10-07T23:09:15.253Z,91.60
2022-10-07T23:11:42.478Z,91.29
2022-10-07T23:14:09.740Z,90.71
2022-10-07T23:16:37.170Z,90.47
2022-10-07T23:19:04.403Z,90.31
2022-10-07T23:21:35.058Z,90.23
2022-10-07T23:24:07.293Z,90.33
2022-10-07T23:26:35.703Z,90.40
2022-10-07T23:29:03.637Z,89.95
2022-10-07T23:31:32.745Z,91.06
2022-10-07T23:34:02.279Z,90.79
2022-10-07T23:36:31.014Z,90.88
2022-10-07T23:39:00.710Z,91.22
2022-10-07T23:41:31.132Z,91.34
2022-10-07T23:44:02.417Z,91.24
2022-10-07T23:46:33.965Z,91.50
2022-10-07T23:49:02.531Z,91.44
2022-10-07T23:51:32.411Z,91.80
2022-10-07T23:54:03.362Z,91.63
2022-10-07T23:56:32.076Z,92.36
2022-10-07T23:58:59.331Z,91.99
